KSLK/SLK METAR and TAF weather

Enter ICAO airport designator
Station Type Date Time Source
KSLK METAR 2019/12/13 02:51 UTC NOAA

KSLK 130251Z AUTO 23003KT 10SM CLR M09/M12 A3038 RMK AO2 SLP319 T10891122 58028


Station Type Date Time Source
KSLK Decoded METAR 2019/12/13 02:51 UTC NOAA

ADIRONDACK REGIONAL AIRPORT, NY, United States (KSLK) 44-24N 074-12W 498M
Dec 12, 2019 - 09:51 PM EST / 2019.12.13 0251 UTC
Wind: from the SW (230 degrees) at 3 MPH (3 KT):0
Visibility: 10 mile(s):0
Sky conditions: clear
Temperature: 16.0 F (-8.9 C)
Dew Point: 10.0 F (-12.2 C)
Relative Humidity: 76%
Pressure (altimeter): 30.38 in. Hg (1028 hPa)
Pressure tendency: 0.08 inches (2.8 hPa) lower than three hours ago
ob: KSLK 130251Z AUTO 23003KT 10SM CLR M09/M12 A3038 RMK AO2 SLP319 T10891122 58028
cycle: 3

Station Type Date Time Source
KSLK TAF 2019/12/12 21:51 UTC NOAA

TAF
AMD KSLK 122047Z 1221/1318 26005KT P6SM SCT025 BKN100
FM130400 18005KT P6SM OVC120 WS020/22035KT
FM131400 19010KT P6SM BKN070

Example: see airport list